createdAt,value
2017-03-05T00:00:45.184Z,0
2017-03-05T00:01:45.212Z,0
2017-03-05T00:02:44.849Z,0
2017-03-05T00:03:45.921Z,0
2017-03-05T00:04:44.910Z,0
2017-03-05T00:05:44.967Z,0
2017-03-05T00:06:45.352Z,0
2017-03-05T00:07:45.377Z,0
2017-03-05T00:08:45.670Z,0
2017-03-05T00:09:45.447Z,0
2017-03-05T00:10:45.463Z,0
2017-03-05T00:11:45.548Z,0
2017-03-05T00:12:45.928Z,0
2017-03-05T00:13:46.185Z,0
2017-03-05T00:14:45.998Z,0
2017-03-05T00:15:45.599Z,0
2017-03-05T00:16:46.027Z,0
2017-03-05T00:17:45.264Z,0
2017-03-05T00:18:45.540Z,0
2017-03-05T00:19:45.322Z,0
2017-03-05T00:20:45.351Z,0
2017-03-05T00:21:45.768Z,0
2017-03-05T00:22:45.404Z,0
2017-03-05T00:23:46.088Z,0
2017-03-05T00:24:45.447Z,0
2017-03-05T00:25:46.294Z,0
2017-03-05T00:26:45.911Z,0
2017-03-05T00:27:45.532Z,0
2017-03-05T00:28:46.633Z,0
2017-03-05T00:29:45.997Z,0
2017-03-05T00:30:45.630Z,0
2017-03-05T00:31:45.647Z,0
2017-03-05T00:32:46.484Z,0
2017-03-05T00:33:45.956Z,0
2017-03-05T00:34:46.124Z,0
2017-03-05T00:35:46.542Z,0
2017-03-05T00:36:46.175Z,0
2017-03-05T00:37:46.228Z,0
2017-03-05T00:38:46.479Z,0
2017-03-05T00:39:46.261Z,0
2017-03-05T00:40:46.318Z,0
2017-03-05T00:41:46.710Z,0
2017-03-05T00:42:46.347Z,0
2017-03-05T00:43:45.972Z,0
2017-03-05T00:44:46.404Z,0
2017-03-05T00:45:46.022Z,0
2017-03-05T00:46:46.833Z,0
2017-03-05T00:47:46.084Z,0
2017-03-05T00:48:46.513Z,0
2017-03-05T00:49:46.941Z,0
2017-03-05T00:50:46.561Z,0
2017-03-05T00:51:45.795Z,0
2017-03-05T00:52:45.847Z,0
2017-03-05T00:53:47.043Z,0
2017-03-05T00:54:45.889Z,0
2017-03-05T00:55:47.086Z,0
2017-03-05T00:56:46.738Z,0
2017-03-05T00:57:45.954Z,0
2017-03-05T00:58:46.392Z,0
2017-03-05T00:59:47.056Z,0
2017-03-05T01:00:46.829Z,0
2017-03-05T01:01:47.285Z,0
2017-03-05T01:02:46.898Z,0
2017-03-05T01:03:46.540Z,0
2017-03-05T01:04:47.616Z,0
2017-03-05T01:05:46.981Z,0
2017-03-05T01:06:46.599Z,0
2017-03-05T01:07:46.651Z,0
2017-03-05T01:08:46.667Z,0
2017-03-05T01:09:46.548Z,0
2017-03-05T01:10:46.728Z,0
2017-03-05T01:11:47.533Z,0
2017-03-05T01:12:47.555Z,0
2017-03-05T01:13:47.590Z,0
2017-03-05T01:14:46.698Z,0
2017-03-05T01:15:46.856Z,0
2017-03-05T01:16:46.863Z,0
2017-03-05T01:17:47.698Z,0
2017-03-05T01:18:47.738Z,0
2017-03-05T01:19:47.200Z,0
2017-03-05T01:20:47.380Z,0
2017-03-05T01:21:47.020Z,0
2017-03-05T01:22:47.426Z,0
2017-03-05T01:23:47.852Z,0
2017-03-05T01:24:47.743Z,0
2017-03-05T01:25:47.516Z,0
2017-03-05T01:26:47.936Z,0
2017-03-05T01:27:47.206Z,0
2017-03-05T01:28:47.202Z,0
2017-03-05T01:29:47.883Z,0
2017-03-05T01:30:47.655Z,0
2017-03-05T01:31:48.073Z,0
2017-03-05T01:32:46.918Z,0
2017-03-05T01:33:48.130Z,0
2017-03-05T01:34:48.006Z,0
2017-03-05T01:35:47.779Z,0
2017-03-05T01:36:48.224Z,0
2017-03-05T01:37:47.449Z,0
2017-03-05T01:38:47.494Z,0
2017-03-05T01:39:48.542Z,0
2017-03-05T01:40:47.943Z,0
2017-03-05T01:41:48.363Z,0
2017-03-05T01:42:47.985Z,0
2017-03-05T01:43:47.631Z,0
2017-03-05T01:44:48.283Z,0
2017-03-05T01:45:48.068Z,0
2017-03-05T01:46:48.097Z,0
2017-03-05T01:47:48.129Z,0
2017-03-05T01:48:48.156Z,0
2017-03-05T01:49:48.427Z,0
2017-03-05T01:50:48.210Z,0
2017-03-05T01:51:48.616Z,0
2017-03-05T01:52:48.260Z,0
2017-03-05T01:53:48.289Z,0
2017-03-05T01:54:48.155Z,0
2017-03-05T01:55:47.941Z,0
2017-03-05T01:56:48.359Z,0
2017-03-05T01:57:48.393Z,0
2017-03-05T01:58:48.819Z,0
2017-03-05T01:59:48.299Z,0
2017-03-05T02:00:48.466Z,0
2017-03-05T02:01:48.488Z,0
2017-03-05T02:02:48.121Z,0
2017-03-05T02:03:48.177Z,0
2017-03-05T02:04:48.822Z,0
2017-03-05T02:05:48.603Z,0
2017-03-05T02:06:48.239Z,0
2017-03-05T02:07:49.061Z,0
2017-03-05T02:08:49.105Z,0
2017-03-05T02:09:48.958Z,0
2017-03-05T02:10:49.147Z,0
2017-03-05T02:11:48.367Z,0
2017-03-05T02:12:48.440Z,0
2017-03-05T02:13:48.419Z,0
2017-03-05T02:14:48.711Z,0
2017-03-05T02:15:48.867Z,0
2017-03-05T02:16:48.511Z,0
2017-03-05T02:17:48.136Z,0
2017-03-05T02:18:48.161Z,0
2017-03-05T02:19:49.225Z,0
2017-03-05T02:20:49.410Z,0
2017-03-05T02:21:49.449Z,0
2017-03-05T02:22:48.687Z,0
2017-03-05T02:23:48.292Z,0
2017-03-05T02:24:49.777Z,0
2017-03-05T02:25:48.753Z,0
2017-03-05T02:26:48.775Z,0
2017-03-05T02:27:48.808Z,0
2017-03-05T02:28:49.627Z,0
2017-03-05T02:29:49.105Z,0
2017-03-05T02:30:49.278Z,0
2017-03-05T02:31:49.314Z,0
2017-03-05T02:32:49.332Z,0
2017-03-05T02:33:49.360Z,0
2017-03-05T02:34:49.649Z,0
2017-03-05T02:35:49.441Z,0
2017-03-05T02:36:49.054Z,0
2017-03-05T02:37:48.675Z,0
2017-03-05T02:38:49.888Z,0
2017-03-05T02:39:48.981Z,0
2017-03-05T02:40:49.550Z,0
2017-03-05T02:41:49.186Z,0
2017-03-05T02:42:49.611Z,0
2017-03-05T02:43:50.028Z,0
2017-03-05T02:44:50.321Z,0
2017-03-05T02:45:49.681Z,0
2017-03-05T02:46:49.722Z,0
2017-03-05T02:47:49.750Z,0
2017-03-05T02:48:49.787Z,0
2017-03-05T02:49:50.043Z,0
2017-03-05T02:50:49.830Z,0
2017-03-05T02:51:49.834Z,0
2017-03-05T02:52:49.074Z,0
2017-03-05T02:53:49.906Z,0
2017-03-05T02:54:50.587Z,0
2017-03-05T02:55:49.944Z,0
2017-03-05T02:56:49.977Z,0
2017-03-05T02:57:50.406Z,0
2017-03-05T02:58:50.027Z,0
2017-03-05T02:59:50.063Z,0
2017-03-05T03:00:50.084Z,0
2017-03-05T03:01:50.117Z,0
2017-03-05T03:02:49.749Z,0
2017-03-05T03:03:49.767Z,0
2017-03-05T03:04:50.608Z,0
2017-03-05T03:05:50.223Z,0
2017-03-05T03:06:50.276Z,0
2017-03-05T03:07:50.297Z,0
2017-03-05T03:08:50.306Z,0
2017-03-05T03:09:50.323Z,0
2017-03-05T03:10:51.016Z,0
2017-03-05T03:11:50.389Z,0
2017-03-05T03:12:50.437Z,0
2017-03-05T03:13:50.450Z,0
2017-03-05T03:14:49.689Z,0
2017-03-05T03:15:50.750Z,0
2017-03-05T03:16:50.145Z,0
2017-03-05T03:17:50.957Z,0
2017-03-05T03:18:50.957Z,0
2017-03-05T03:19:50.607Z,0
2017-03-05T03:20:50.891Z,0
2017-03-05T03:21:50.659Z,0
2017-03-05T03:22:50.689Z,0
2017-03-05T03:23:50.746Z,0
2017-03-05T03:24:49.930Z,0
2017-03-05T03:25:50.619Z,0
2017-03-05T03:26:51.184Z,0
2017-03-05T03:27:50.412Z,0
2017-03-05T03:28:50.837Z,0
2017-03-05T03:29:50.878Z,0
2017-03-05T03:30:51.160Z,0
2017-03-05T03:31:50.959Z,0
2017-03-05T03:32:50.168Z,0
2017-03-05T03:33:51.004Z,0
2017-03-05T03:34:51.020Z,0
2017-03-05T03:35:51.670Z,0
2017-03-05T03:36:51.071Z,0
2017-03-05T03:37:50.684Z,0
2017-03-05T03:38:50.318Z,0
2017-03-05T03:39:51.535Z,0
2017-03-05T03:40:51.030Z,0
2017-03-05T03:41:51.227Z,0
2017-03-05T03:42:50.835Z,0
2017-03-05T03:43:51.656Z,0
2017-03-05T03:44:51.261Z,0
2017-03-05T03:45:51.568Z,0
2017-03-05T03:46:51.725Z,0
2017-03-05T03:47:51.367Z,0
2017-03-05T03:48:51.376Z,0
2017-03-05T03:49:51.446Z,0
2017-03-05T03:50:52.073Z,0
2017-03-05T03:51:51.102Z,0
2017-03-05T03:52:51.486Z,0
2017-03-05T03:53:50.715Z,0
2017-03-05T03:54:51.936Z,0
2017-03-05T03:55:51.177Z,0
2017-03-05T03:56:51.606Z,0
2017-03-05T03:57:51.226Z,0
2017-03-05T03:58:50.859Z,0
2017-03-05T03:59:51.672Z,0
2017-03-05T04:00:52.115Z,0
2017-03-05T04:01:51.745Z,0
2017-03-05T04:02:51.782Z,0
2017-03-05T04:03:51.819Z,0
2017-03-05T04:04:51.807Z,0
2017-03-05T04:05:52.224Z,0
2017-03-05T04:06:51.466Z,0
2017-03-05T04:07:51.906Z,0
2017-03-05T04:08:52.319Z,0
2017-03-05T04:09:51.181Z,0
2017-03-05T04:10:51.580Z,0
2017-03-05T04:11:51.861Z,0
2017-03-05T04:12:52.035Z,0
2017-03-05T04:13:51.650Z,0
2017-03-05T04:14:52.091Z,0
2017-03-05T04:15:52.111Z,0
2017-03-05T04:16:51.608Z,0
2017-03-05T04:17:52.161Z,0
2017-03-05T04:18:52.594Z,0
2017-03-05T04:19:51.451Z,0
2017-03-05T04:20:51.851Z,0
2017-03-05T04:21:52.933Z,0
2017-03-05T04:22:52.317Z,0
2017-03-05T04:23:52.746Z,0
2017-03-05T04:24:52.371Z,0
2017-03-05T04:25:52.415Z,0
2017-03-05T04:26:52.663Z,0
2017-03-05T04:27:52.028Z,0
2017-03-05T04:28:52.853Z,0
2017-03-05T04:29:52.501Z,0
2017-03-05T04:30:51.714Z,0
2017-03-05T04:31:52.403Z,0
2017-03-05T04:32:52.560Z,0
2017-03-05T04:33:52.993Z,0
2017-03-05T04:34:53.017Z,0
2017-03-05T04:35:52.650Z,0
2017-03-05T04:36:52.919Z,0
2017-03-05T04:37:52.335Z,0
2017-03-05T04:38:52.744Z,0
2017-03-05T04:39:53.161Z,0
2017-03-05T04:40:52.788Z,0
2017-03-05T04:41:53.059Z,0
2017-03-05T04:42:52.452Z,0
2017-03-05T04:43:53.261Z,0
2017-03-05T04:44:53.285Z,0
2017-03-05T04:45:52.921Z,0
2017-03-05T04:46:52.794Z,0
2017-03-05T04:47:52.162Z,0
2017-03-05T04:48:52.983Z,0
2017-03-05T04:49:52.620Z,0
2017-03-05T04:50:52.661Z,0
2017-03-05T04:51:53.330Z,0
2017-03-05T04:52:53.507Z,0
2017-03-05T04:53:52.735Z,0
2017-03-05T04:54:53.545Z,0
2017-03-05T04:55:52.789Z,0
2017-03-05T04:56:53.858Z,0
2017-03-05T04:57:52.851Z,0
2017-03-05T04:58:53.659Z,0
2017-03-05T04:59:53.675Z,0
2017-03-05T05:00:53.317Z,0
2017-03-05T05:01:53.601Z,0
2017-03-05T05:02:52.582Z,0
2017-03-05T05:03:53.391Z,0
2017-03-05T05:04:53.427Z,0
2017-03-05T05:05:53.461Z,0
2017-03-05T05:06:53.729Z,0
2017-03-05T05:07:53.894Z,0
2017-03-05T05:08:53.930Z,0
2017-03-05T05:09:53.559Z,0
2017-03-05T05:10:53.584Z,0
2017-03-05T05:11:53.469Z,0
2017-03-05T05:12:53.245Z,0
2017-03-05T05:13:54.074Z,0
2017-03-05T05:14:54.090Z,0
2017-03-05T05:15:54.136Z,0
2017-03-05T05:16:53.592Z,0
2017-03-05T05:17:54.169Z,0
2017-03-05T05:18:54.194Z,0
2017-03-05T05:19:53.843Z,0
2017-03-05T05:20:53.471Z,0
2017-03-05T05:21:54.128Z,0
2017-03-05T05:22:53.913Z,0
2017-03-05T05:23:54.333Z,0
2017-03-05T05:24:53.978Z,0
2017-03-05T05:25:54.000Z,0
2017-03-05T05:26:54.266Z,0
2017-03-05T05:27:53.665Z,0
2017-03-05T05:28:53.679Z,0
2017-03-05T05:29:53.686Z,0
2017-03-05T05:30:54.112Z,0
2017-03-05T05:31:54.432Z,0
2017-03-05T05:32:54.580Z,0
2017-03-05T05:33:53.808Z,0
2017-03-05T05:34:54.237Z,0
2017-03-05T05:35:53.462Z,0
2017-03-05T05:36:54.539Z,0
2017-03-05T05:37:54.697Z,0
2017-03-05T05:38:54.729Z,0
2017-03-05T05:39:53.573Z,0
2017-03-05T05:40:54.394Z,0
2017-03-05T05:41:54.679Z,0
2017-03-05T05:42:54.051Z,0
2017-03-05T05:43:54.480Z,0
2017-03-05T05:44:54.496Z,0
2017-03-05T05:45:54.522Z,0
2017-03-05T05:46:53.763Z,0
2017-03-05T05:47:54.611Z,4
2017-03-05T05:48:54.600Z,4
2017-03-05T05:49:55.029Z,4
2017-03-05T05:50:55.045Z,4
2017-03-05T05:51:54.282Z,4
2017-03-05T05:52:53.910Z,4
2017-03-05T05:53:55.172Z,4
2017-03-05T05:54:54.782Z,4
2017-03-05T05:55:54.792Z,8
2017-03-05T05:56:54.833Z,8
2017-03-05T05:57:54.070Z,8
2017-03-05T05:58:54.903Z,8
2017-03-05T05:59:54.507Z,12
2017-03-05T06:00:54.922Z,8
2017-03-05T06:01:55.358Z,12
2017-03-05T06:02:54.190Z,12
2017-03-05T06:03:55.010Z,16
2017-03-05T06:04:55.423Z,16
2017-03-05T06:05:54.686Z,16
2017-03-05T06:06:55.097Z,28
2017-03-05T06:07:54.734Z,28
2017-03-05T06:08:55.536Z,32
2017-03-05T06:09:55.556Z,36
2017-03-05T06:10:55.576Z,36
2017-03-05T06:11:55.622Z,36
2017-03-05T06:12:55.642Z,40
2017-03-05T06:13:54.883Z,28
2017-03-05T06:14:54.919Z,24
2017-03-05T06:15:54.935Z,32
2017-03-05T06:16:55.748Z,40
2017-03-05T06:17:55.274Z,36
2017-03-05T06:18:55.015Z,44
2017-03-05T06:19:55.047Z,48
2017-03-05T06:20:55.856Z,56
2017-03-05T06:21:55.085Z,72
2017-03-05T06:22:55.382Z,88
2017-03-05T06:23:55.542Z,108
2017-03-05T06:24:55.568Z,120
2017-03-05T06:25:56.000Z,84
2017-03-05T06:26:55.625Z,112
2017-03-05T06:27:55.521Z,116
2017-03-05T06:28:55.678Z,112
2017-03-05T06:29:55.307Z,108
2017-03-05T06:30:55.356Z,116
2017-03-05T06:31:56.165Z,128
2017-03-05T06:32:55.245Z,132
2017-03-05T06:33:55.026Z,124
2017-03-05T06:34:56.238Z,132
2017-03-05T06:35:55.875Z,176
2017-03-05T06:36:55.912Z,140
2017-03-05T06:37:56.578Z,104
2017-03-05T06:38:55.957Z,128
2017-03-05T06:39:55.574Z,140
2017-03-05T06:40:55.216Z,140
2017-03-05T06:41:55.628Z,188
2017-03-05T06:42:55.908Z,244
2017-03-05T06:43:55.691Z,260
2017-03-05T06:44:56.122Z,212
2017-03-05T06:45:56.134Z,180
2017-03-05T06:46:56.168Z,148
2017-03-05T06:47:56.869Z,120
2017-03-05T06:48:55.830Z,140
2017-03-05T06:49:56.651Z,216
2017-03-05T06:50:56.267Z,236
2017-03-05T06:51:56.716Z,236
2017-03-05T06:52:56.595Z,256
2017-03-05T06:53:56.785Z,248
2017-03-05T06:54:56.398Z,248
2017-03-05T06:55:56.423Z,252
2017-03-05T06:56:56.032Z,224
2017-03-05T06:57:56.337Z,240
2017-03-05T06:58:56.141Z,224
2017-03-05T06:59:56.526Z,236
2017-03-05T07:00:56.551Z,280
2017-03-05T07:01:56.184Z,280
2017-03-05T07:02:57.248Z,296
2017-03-05T07:03:56.625Z,384
2017-03-05T07:04:56.662Z,400
2017-03-05T07:05:56.687Z,408
2017-03-05T07:06:56.728Z,392
2017-03-05T07:07:56.604Z,360
2017-03-05T07:08:56.773Z,404
2017-03-05T07:09:56.386Z,420
2017-03-05T07:10:56.423Z,428
2017-03-05T07:11:57.239Z,364
2017-03-05T07:12:57.512Z,316
2017-03-05T07:13:57.289Z,244
2017-03-05T07:14:56.917Z,228
2017-03-05T07:15:56.954Z,240
2017-03-05T07:16:56.239Z,272
2017-03-05T07:17:56.456Z,272
2017-03-05T07:18:57.040Z,428
2017-03-05T07:19:56.676Z,464
2017-03-05T07:20:57.103Z,624
2017-03-05T07:21:57.122Z,628
2017-03-05T07:22:57.408Z,560
2017-03-05T07:23:56.768Z,712
2017-03-05T07:24:57.592Z,652
2017-03-05T07:25:57.245Z,760
2017-03-05T07:26:57.243Z,896
2017-03-05T07:27:57.523Z,1012
2017-03-05T07:28:56.908Z,1024
2017-03-05T07:29:56.933Z,1280
2017-03-05T07:30:57.365Z,1428
2017-03-05T07:31:57.397Z,1488
2017-03-05T07:32:57.657Z,1512
2017-03-05T07:33:56.644Z,1552
2017-03-05T07:34:57.068Z,1568
2017-03-05T07:35:57.512Z,1356
2017-03-05T07:36:57.918Z,1104
2017-03-05T07:37:57.795Z,976
2017-03-05T07:38:57.623Z,960
2017-03-05T07:39:57.204Z,1044
2017-03-05T07:40:57.252Z,1172
2017-03-05T07:41:57.657Z,1252
2017-03-05T07:42:57.938Z,1196
2017-03-05T07:43:57.727Z,1336
2017-03-05T07:44:57.740Z,1276
2017-03-05T07:45:57.372Z,1140
2017-03-05T07:46:57.397Z,1140
2017-03-05T07:47:58.092Z,1172
2017-03-05T07:48:58.250Z,1096
2017-03-05T07:49:58.270Z,1344
2017-03-05T07:50:57.908Z,1276
2017-03-05T07:51:57.145Z,1256
2017-03-05T07:52:59.317Z,1356
2017-03-05T07:53:57.598Z,1612
2017-03-05T07:54:57.627Z,1396
2017-03-05T07:55:58.040Z,1388
2017-03-05T07:56:58.482Z,1112
2017-03-05T07:57:58.101Z,1092
2017-03-05T07:58:57.726Z,1108
2017-03-05T07:59:58.546Z,1036
2017-03-05T08:00:57.784Z,988
2017-03-05T08:01:58.597Z,808
2017-03-05T08:02:58.254Z,664
2017-03-05T08:03:57.858Z,608
2017-03-05T08:04:57.490Z,480
2017-03-05T08:05:57.920Z,552
2017-03-05T08:06:58.735Z,680
2017-03-05T08:07:58.011Z,776
2017-03-05T08:08:58.396Z,708
2017-03-05T08:09:58.429Z,604
2017-03-05T08:10:58.456Z,848
2017-03-05T08:11:58.484Z,772
2017-03-05T08:12:58.531Z,872
2017-03-05T08:13:58.538Z,1092
2017-03-05T08:14:57.782Z,1068
2017-03-05T08:15:58.191Z,1116
2017-03-05T08:16:58.230Z,1116
2017-03-05T08:17:58.253Z,1204
2017-03-05T08:18:58.265Z,1416
2017-03-05T08:19:59.092Z,1328
2017-03-05T08:20:58.323Z,1132
2017-03-05T08:21:58.755Z,1172
2017-03-05T08:22:59.168Z,1228
2017-03-05T08:23:58.802Z,1324
2017-03-05T08:24:59.230Z,1696
2017-03-05T08:25:58.866Z,2188
2017-03-05T08:26:58.493Z,3624
2017-03-05T08:27:58.920Z,3840
2017-03-05T08:28:58.416Z,3956
2017-03-05T08:29:58.565Z,3164
2017-03-05T08:30:59.422Z,2872
2017-03-05T08:31:59.019Z,2584
2017-03-05T08:32:58.655Z,2416
2017-03-05T08:33:58.925Z,2560
2017-03-05T08:34:59.097Z,2568
2017-03-05T08:35:59.538Z,2012
2017-03-05T08:36:59.149Z,1624
2017-03-05T08:37:59.183Z,1504
2017-03-05T08:39:01.358Z,1888
2017-03-05T08:39:59.253Z,1928
2017-03-05T08:40:58.881Z,2272
2017-03-05T08:41:59.723Z,2416
2017-03-05T08:42:58.923Z,2552
2017-03-05T08:44:00.000Z,2060
2017-03-05T08:44:58.622Z,1852
2017-03-05T08:45:59.410Z,1608
2017-03-05T08:46:59.425Z,1468
2017-03-05T08:47:59.858Z,1684
2017-03-05T08:48:59.368Z,1732
2017-03-05T08:49:59.131Z,2172
2017-03-05T08:50:59.529Z,2056
2017-03-05T08:51:59.578Z,2240
2017-03-05T08:52:59.598Z,1900
2017-03-05T08:54:00.281Z,2040
2017-03-05T08:54:58.904Z,1908
2017-03-05T08:55:58.889Z,1632
2017-03-05T08:56:59.742Z,1992
2017-03-05T08:57:59.342Z,2796
2017-03-05T08:59:00.024Z,2852
2017-03-05T08:59:59.780Z,2060
2017-03-05T09:00:59.416Z,1812
2017-03-05T09:02:00.234Z,1424
2017-03-05T09:02:59.873Z,1112
2017-03-05T09:04:00.142Z,1328
2017-03-05T09:05:00.316Z,1356
2017-03-05T09:05:59.950Z,1676
2017-03-05T09:06:59.981Z,1900
2017-03-05T09:07:59.614Z,2416
2017-03-05T09:09:00.678Z,2188
2017-03-05T09:10:00.051Z,2672
2017-03-05T09:11:00.489Z,3088
2017-03-05T09:12:00.104Z,3132
2017-03-05T09:13:00.145Z,3244
2017-03-05T09:13:59.638Z,3112
2017-03-05T09:14:59.399Z,3176
2017-03-05T09:16:00.632Z,4308
2017-03-05T09:17:00.641Z,3840
2017-03-05T09:18:00.277Z,2424
2017-03-05T09:19:00.153Z,1836
2017-03-05T09:20:00.724Z,1908
2017-03-05T09:21:00.363Z,2440
2017-03-05T09:22:00.383Z,2496
2017-03-05T09:23:00.812Z,2304
2017-03-05T09:24:00.677Z,2336
2017-03-05T09:25:00.885Z,1956
2017-03-05T09:26:00.106Z,1816
2017-03-05T09:27:00.136Z,1896
2017-03-05T09:28:00.133Z,2300
2017-03-05T09:29:00.173Z,2372
2017-03-05T09:30:00.994Z,1812
2017-03-05T09:31:01.043Z,2312
2017-03-05T09:32:00.267Z,2540
2017-03-05T09:33:00.708Z,3028
2017-03-05T09:34:00.701Z,2372
2017-03-05T09:35:00.345Z,1652
2017-03-05T09:36:00.751Z,1536
2017-03-05T09:37:01.183Z,1916
2017-03-05T09:38:00.420Z,2588
2017-03-05T09:39:00.837Z,2984
2017-03-05T09:40:01.257Z,2780
2017-03-05T09:41:01.305Z,2484
2017-03-05T09:42:00.545Z,2660
2017-03-05T09:43:00.951Z,3136
2017-03-05T09:44:00.204Z,4024
2017-03-05T09:45:01.005Z,4272
2017-03-05T09:46:00.637Z,4200
2017-03-05T09:47:01.450Z,3060
2017-03-05T09:48:01.467Z,2872
2017-03-05T09:49:00.708Z,3728
2017-03-05T09:50:01.543Z,2916
2017-03-05T09:51:01.166Z,3224
2017-03-05T09:52:01.193Z,3308
2017-03-05T09:53:01.622Z,3668
2017-03-05T09:54:01.635Z,4012
2017-03-05T09:55:00.864Z,3684
2017-03-05T09:56:01.294Z,3996
2017-03-05T09:57:01.717Z,4308
2017-03-05T09:58:01.353Z,3956
2017-03-05T09:59:00.583Z,3644
2017-03-05T10:00:01.244Z,3108
2017-03-05T10:01:01.849Z,3392
2017-03-05T10:02:01.461Z,3528
2017-03-05T10:03:01.485Z,3428
2017-03-05T10:04:01.103Z,3112
2017-03-05T10:05:02.888Z,2552
2017-03-05T10:06:01.580Z,2676
2017-03-05T10:07:01.585Z,3452
2017-03-05T10:08:00.813Z,3000
2017-03-05T10:09:02.050Z,2344
2017-03-05T10:10:01.119Z,1480
2017-03-05T10:11:02.096Z,2892
2017-03-05T10:12:01.735Z,2656
2017-03-05T10:13:02.149Z,1832
2017-03-05T10:14:01.398Z,1536
2017-03-05T10:15:02.067Z,1404
2017-03-05T10:16:02.235Z,2536
2017-03-05T10:17:02.264Z,3452
2017-03-05T10:18:01.477Z,3748
2017-03-05T10:19:02.314Z,2644
2017-03-05T10:20:01.809Z,2060
2017-03-05T10:21:01.959Z,2356
2017-03-05T10:22:01.602Z,3624
2017-03-05T10:23:02.417Z,4176
2017-03-05T10:24:02.426Z,3772
2017-03-05T10:25:01.922Z,2860
2017-03-05T10:26:01.703Z,2476
2017-03-05T10:27:01.723Z,2336
2017-03-05T10:28:01.768Z,2412
2017-03-05T10:29:02.586Z,2384
2017-03-05T10:30:02.081Z,3084
2017-03-05T10:31:01.842Z,4040
2017-03-05T10:32:02.663Z,3620
2017-03-05T10:33:02.308Z,3192
2017-03-05T10:34:01.921Z,2620
2017-03-05T10:35:02.198Z,3084
2017-03-05T10:36:02.754Z,2528
2017-03-05T10:37:02.010Z,2592
2017-03-05T10:38:02.815Z,1744
2017-03-05T10:39:02.464Z,1496
2017-03-05T10:40:02.332Z,1980
2017-03-05T10:41:02.113Z,1476
2017-03-05T10:42:02.526Z,2108
2017-03-05T10:43:02.551Z,3288
2017-03-05T10:44:02.972Z,4032
2017-03-05T10:45:03.260Z,4124
2017-03-05T10:46:02.636Z,2736
2017-03-05T10:47:02.261Z,2628
2017-03-05T10:48:01.907Z,2848
2017-03-05T10:49:02.712Z,4276
2017-03-05T10:50:03.025Z,3664
2017-03-05T10:51:03.182Z,2580
2017-03-05T10:52:02.010Z,2760
2017-03-05T10:53:02.447Z,2096
2017-03-05T10:54:02.854Z,2048
2017-03-05T10:55:02.744Z,1900
2017-03-05T10:56:02.912Z,2352
2017-03-05T10:57:02.961Z,2152
2017-03-05T10:58:03.362Z,1264
2017-03-05T10:59:02.603Z,1328
2017-03-05T11:00:02.877Z,2200
2017-03-05T11:01:03.051Z,3368
2017-03-05T11:02:03.081Z,2720
2017-03-05T11:03:03.106Z,2220
2017-03-05T11:04:03.511Z,1536
2017-03-05T11:05:03.013Z,1508
2017-03-05T11:06:02.788Z,3576
2017-03-05T11:07:03.210Z,4492
2017-03-05T11:08:02.853Z,4340
2017-03-05T11:09:03.710Z,4040
2017-03-05T11:10:03.538Z,4292
2017-03-05T11:11:03.324Z,4844
2017-03-05T11:12:03.745Z,5504
2017-03-05T11:13:03.361Z,5484
2017-03-05T11:14:03.386Z,4016
2017-03-05T11:15:04.094Z,4304
2017-03-05T11:16:03.447Z,5892
2017-03-05T11:17:03.880Z,5700
2017-03-05T11:18:03.913Z,5324
2017-03-05T11:19:03.926Z,4400
2017-03-05T11:20:03.820Z,3612
2017-03-05T11:21:03.978Z,3572
2017-03-05T11:22:03.603Z,2708
2017-03-05T11:23:02.847Z,1960
2017-03-05T11:24:03.281Z,2028
2017-03-05T11:25:04.334Z,1880
2017-03-05T11:26:03.734Z,2512
2017-03-05T11:27:04.146Z,3328
2017-03-05T11:28:03.823Z,2524
2017-03-05T11:29:03.804Z,2284
2017-03-05T11:30:04.506Z,3028
2017-03-05T11:31:03.466Z,6020
2017-03-05T11:32:03.903Z,6580
2017-03-05T11:33:03.523Z,5124
2017-03-05T11:34:03.940Z,3824
2017-03-05T11:35:03.963Z,4008
2017-03-05T11:36:04.405Z,4784
2017-03-05T11:37:04.066Z,3844
2017-03-05T11:38:04.043Z,5592
2017-03-05T11:39:04.500Z,8332
2017-03-05T11:40:03.717Z,6444
2017-03-05T11:41:04.801Z,5992
2017-03-05T11:42:04.558Z,5460
2017-03-05T11:43:04.218Z,5920
2017-03-05T11:44:04.251Z,6536
2017-03-05T11:45:03.838Z,6004
2017-03-05T11:46:04.553Z,6064
2017-03-05T11:47:04.695Z,6012
2017-03-05T11:48:04.327Z,6136
2017-03-05T11:49:04.340Z,6140
2017-03-05T11:50:04.771Z,6180
2017-03-05T11:51:04.668Z,7028
2017-03-05T11:52:04.433Z,7808
2017-03-05T11:53:04.877Z,3092
2017-03-05T11:54:04.494Z,4076
2017-03-05T11:55:04.523Z,4280
2017-03-05T11:56:04.788Z,4620
2017-03-05T11:57:04.958Z,3848
2017-03-05T11:58:05.000Z,3500
2017-03-05T11:59:04.223Z,3764
2017-03-05T12:00:04.662Z,2868
2017-03-05T12:01:06.431Z,2328
2017-03-05T12:02:04.720Z,3476
2017-03-05T12:03:04.745Z,3456
2017-03-05T12:04:04.373Z,2008
2017-03-05T12:05:03.994Z,1880
2017-03-05T12:06:05.067Z,3196
2017-03-05T12:07:05.236Z,2816
2017-03-05T12:08:05.265Z,2848
2017-03-05T12:09:04.917Z,2744
2017-03-05T12:10:04.118Z,3128
2017-03-05T12:11:05.622Z,1772
2017-03-05T12:12:05.402Z,1640
2017-03-05T12:13:04.615Z,2248
2017-03-05T12:14:05.036Z,7084
2017-03-05T12:15:05.081Z,13616
2017-03-05T12:16:05.382Z,13320
2017-03-05T12:17:05.510Z,12044
2017-03-05T12:18:05.552Z,8104
2017-03-05T12:19:04.796Z,5176
2017-03-05T12:20:05.595Z,3524
2017-03-05T12:21:05.481Z,2984
2017-03-05T12:22:05.258Z,2996
2017-03-05T12:23:04.498Z,3328
2017-03-05T12:24:04.527Z,2812
2017-03-05T12:25:04.948Z,2592
2017-03-05T12:26:05.629Z,3608
2017-03-05T12:27:05.411Z,4040
2017-03-05T12:28:05.434Z,3520
2017-03-05T12:29:05.875Z,4916
2017-03-05T12:30:05.872Z,6044
2017-03-05T12:31:05.755Z,4392
2017-03-05T12:32:05.549Z,4188
2017-03-05T12:33:05.973Z,4376
2017-03-05T12:34:05.218Z,3504
2017-03-05T12:35:05.232Z,2520
2017-03-05T12:36:05.915Z,2176
2017-03-05T12:37:05.677Z,2280
2017-03-05T12:38:05.712Z,2168
2017-03-05T12:39:05.330Z,1328
2017-03-05T12:40:05.774Z,1308
2017-03-05T12:41:06.059Z,2064
2017-03-05T12:42:05.828Z,1572
2017-03-05T12:43:05.833Z,2212
2017-03-05T12:44:06.273Z,2508
2017-03-05T12:45:05.515Z,2184
2017-03-05T12:46:06.183Z,2320
2017-03-05T12:47:05.588Z,1500
2017-03-05T12:48:05.601Z,1116
2017-03-05T12:49:06.417Z,1028
2017-03-05T12:50:06.430Z,1432
2017-03-05T12:51:06.322Z,3164
2017-03-05T12:52:05.311Z,4092
2017-03-05T12:53:05.742Z,5184
2017-03-05T12:54:06.540Z,5580
2017-03-05T12:55:05.788Z,4908
2017-03-05T12:56:06.844Z,4604
2017-03-05T12:57:06.219Z,3932
2017-03-05T12:58:06.288Z,2932
2017-03-05T12:59:06.281Z,2620
2017-03-05T13:00:05.914Z,2508
2017-03-05T13:01:06.607Z,2080
2017-03-05T13:02:06.430Z,2036
2017-03-05T13:03:06.007Z,2304
2017-03-05T13:04:05.663Z,1676
2017-03-05T13:05:06.445Z,2088
2017-03-05T13:06:06.733Z,3676
2017-03-05T13:07:06.494Z,5736
2017-03-05T13:08:06.134Z,7000
2017-03-05T13:09:06.556Z,6148
2017-03-05T13:10:06.980Z,5972
2017-03-05T13:11:06.857Z,5264
2017-03-05T13:12:06.649Z,4072
2017-03-05T13:13:07.090Z,2868
2017-03-05T13:14:06.687Z,2144
2017-03-05T13:15:07.116Z,1688
2017-03-05T13:16:07.043Z,1084
2017-03-05T13:17:06.786Z,1132
2017-03-05T13:18:06.440Z,1328
2017-03-05T13:19:06.852Z,1424
2017-03-05T13:20:06.867Z,1908
2017-03-05T13:21:07.135Z,1852
2017-03-05T13:22:06.114Z,1812
2017-03-05T13:23:06.538Z,2316
2017-03-05T13:24:06.176Z,2576
2017-03-05T13:25:06.596Z,2392
2017-03-05T13:26:06.868Z,2912
2017-03-05T13:27:07.501Z,2204
2017-03-05T13:28:07.080Z,2084
2017-03-05T13:29:06.714Z,1912
2017-03-05T13:30:07.543Z,1716
2017-03-05T13:31:07.416Z,1400
2017-03-05T13:32:06.410Z,1092
2017-03-05T13:33:07.232Z,976
2017-03-05T13:34:07.656Z,844
2017-03-05T13:35:07.278Z,724
2017-03-05T13:36:07.181Z,776
2017-03-05T13:37:07.725Z,1208
2017-03-05T13:38:07.754Z,1688
2017-03-05T13:39:07.377Z,1972
2017-03-05T13:40:07.822Z,1888
2017-03-05T13:41:06.885Z,1720
2017-03-05T13:42:07.460Z,1412
2017-03-05T13:43:07.085Z,1396
2017-03-05T13:44:07.906Z,1520
2017-03-05T13:45:07.542Z,1488
2017-03-05T13:46:07.815Z,1524
2017-03-05T13:47:07.591Z,1976
2017-03-05T13:48:08.017Z,1844
2017-03-05T13:49:07.265Z,1904
2017-03-05T13:50:08.127Z,1868
2017-03-05T13:51:09.870Z,1640
2017-03-05T13:52:08.130Z,1652
2017-03-05T13:53:06.976Z,1500
2017-03-05T13:54:08.199Z,1100
2017-03-05T13:55:08.234Z,1028
2017-03-05T13:56:07.837Z,1036
2017-03-05T13:57:08.283Z,704
2017-03-05T13:58:08.292Z,660
2017-03-05T13:59:07.525Z,644